Nearby METAR Reports

 

KTEB - Teterboro, New Jersey, USA
Distance from station: ENE 2mi, 4km
Updated: 09/22/2019 4:51pm
Clear
Clear
 Wind from SSE
Wind: SSE 9 mph , 15 km/h
Temperature: 86°F , 30°C
Heat Index: 87°F , 31°C
Dew Point: 63°F , 17°C
Humidity: 46%
Barometer: 30.02 inHg , 1016.6 hPa
Clouds: Clear
Visibility: 10 miles , 16 km
2019/09/22 20:51 KTEB 222051Z 16008KT 10SM CLR 30/17 A3002 RMK AO2 SLP164 T03000172 56022
KNYC - Nyc/Central Park, New York, USA
Distance from station: SE 8mi, 13km
Updated: 09/22/2019 4:51pm
Clear
Clear
 Wind from varies
Wind: varies 3 mph , 6 km/h
Temperature: 82°F , 28°C
Heat Index: 83°F , 28°C
Dew Point: 63°F , 17°C
Humidity: 51%
Barometer: 30.07 inHg , 1018.3 hPa
Clouds: Clear
Visibility: 10 miles , 16 km
2019/09/22 20:51 KNYC 222051Z AUTO VRB03KT 10SM CLR 28/17 A3007 RMK AO2 SLP172 T02780172 56020 $
 
KCDW - Caldwell, New Jersey, USA
Distance from station: WNW 10mi, 17km
Updated: 09/22/2019 4:53pm
Clear
Clear
 Wind from varies
Wind: varies 5 mph , 7 km/h
Temperature: 88°F , 31°C
Heat Index: 89°F , 32°C
Dew Point: 63°F , 17°C
Humidity: 43%
Barometer: 30.03 inHg , 1016.9 hPa
Clouds: Clear
Visibility: 10 miles , 16 km
2019/09/22 20:53 KCDW 222053Z VRB04KT 10SM CLR 31/17 A3003 RMK AO2 SLP173 T03110172 56023
KLGA - Nyc/La Guardia, New York, USA
Distance from station: ESE 12mi, 19km
Updated: 09/22/2019 4:51pm
Mostly cloudy
Mostly cloudy
 Wind from SSE
Wind: SSE 14 mph , 22 km/h
Temperature: 82°F , 28°C
Heat Index: 82°F , 28°C
Dew Point: 61°F , 16°C
Humidity: 48%
Barometer: 30.04 inHg , 1017.3 hPa
Clouds: Mostly cloudy
Visibility: 10 miles , 16 km
Cloud details: Few Clouds 5000 ft
Mostly cloudy 25000 ft
2019/09/22 20:51 KLGA 222051Z 16012KT 10SM FEW050 BKN250 28/16 A3004 RMK AO2 SLP172 T02830156 56020 $
 
KEWR - Newark, New Jersey, USA
Distance from station: SSW 12mi, 20km
Updated: 09/22/2019 4:51pm
Mostly cloudy
Mostly cloudy
 Wind from SSE
Wind: SSE 12 mph , 19 km/h
Temperature: 84°F , 29°C
Heat Index: 85°F , 29°C
Dew Point: 64°F , 18°C
Humidity: 51%
Barometer: 30.03 inHg , 1016.9 hPa
Clouds: Mostly cloudy
Visibility: 10 miles , 16 km
Cloud details: Partly cloudy 6000 ft
Mostly cloudy 25000 ft
2019/09/22 20:51 KEWR 222051Z 15010KT 10SM SCT060 BKN250 29/18 A3003 RMK AO2 SLP167 T02940178 56022 $
KMMU - Morristown Muni, New Jersey, USA
Distance from station: WSW 18mi, 29km
Updated: 09/22/2019 4:45pm
Partly cloudy
Partly cloudy
 Wind from SW
Wind: SW 9 mph , 15 km/h
Temperature: 88°F , 31°C
Heat Index: 91°F , 33°C
Dew Point: 66°F , 19°C
Humidity: 49%
Barometer: 30.03 inHg , 1016.9 hPa
Clouds: Partly cloudy
Visibility: 10 miles , 16 km
Cloud details: Partly cloudy 12000 ft
2019/09/22 20:45 KMMU 222045Z 22008KT 10SM SCT120 31/19 A3003
 
KJFK - Nyc/Jfk Arpt, New York, USA
Distance from station: SE 23mi, 36km
Updated: 09/22/2019 4:51pm
Mostly cloudy
Mostly cloudy
 Wind from SSW
Wind: SSW 20 mph , 31 km/h, Gust: 26 mph , 43 km/h
Temperature: 77°F , 25°C
Dew Point: 64°F , 18°C
Humidity: 65%
Barometer: 30.06 inHg , 1017.9 hPa
Clouds: Mostly cloudy
Visibility: 10 miles , 16 km
Cloud details: Mostly cloudy 25000 ft
2019/09/22 20:51 KJFK 222051Z 20017G23KT 10SM BKN250 25/18 A3006 RMK AO2 SLP180 T02500178 56023 CHINO W $
KHPN - White Plains, New York, USA
Distance from station: NE 25mi, 40km
Updated: 09/22/2019 4:56pm
Clear
Clear
 Wind from SSE
Wind: SSE 9 mph , 15 km/h
Temperature: 81°F , 27°C
Heat Index: 82°F , 28°C
Dew Point: 61°F , 16°C
Humidity: 51%
Barometer: 30.05 inHg , 1017.6 hPa
Clouds: Clear
Visibility: 10 miles , 16 km
2019/09/22 20:56 KHPN 222056Z 16008KT 10SM CLR 27/16 A3005 RMK AO2 SLP171 T02720156 56019
 
KSMQ - Somerville, New Jersey, USA
Distance from station: WSW 34mi, 55km
Updated: 09/22/2019 4:53pm
Few Clouds
Few Clouds
 Wind from S
Wind: S 7 mph , 11 km/h
Temperature: 88°F , 31°C
Heat Index: 90°F , 32°C
Dew Point: 64°F , 18°C
Humidity: 46%
Barometer: 30.01 inHg , 1016.3 hPa
Clouds: Few Clouds
Visibility: 9 miles , 14 km
Cloud details: Few Clouds 6000 ft
2019/09/22 20:53 KSMQ 222053Z AUTO 18006KT 9SM FEW060 31/18 A3001 RMK AO2 SLP161 T03060178 56022
K12N - Andover, New Jersey, USA
Distance from station: WNW 36mi, 57km
Updated: 09/22/2019 4:54pm

 Wind from SSW
Wind: SSW 7 mph , 11 km/h
Temperature: 84°F , 29°C
Heat Index: 86°F , 30°C
Dew Point: 66°F , 19°C
Humidity: 55%
Barometer: 30.05 inHg , 1017.6 hPa
2019/09/22 20:54 K12N 222054Z AUTO 21006KT 29/19 A3005 RMK AO1 SLP169 T02940189 56019
 
KFRG - Farmingdale, New York, USA
Distance from station: ESE 36mi, 58km
Updated: 09/22/2019 4:53pm
Clear
Clear
 Wind from SSW
Wind: SSW 15 mph , 24 km/h
Temperature: 77°F , 25°C
Dew Point: 61°F , 16°C
Humidity: 57%
Barometer: 30.07 inHg , 1018.3 hPa
Clouds: Clear
Visibility: 10 miles , 16 km
2019/09/22 20:53 KFRG 222053Z 20013KT 10SM CLR 25/16 A3007 RMK AO2 SLP182 T02500156 56019
KFWN - Sussex, New Jersey, USA
Distance from station: NW 37mi, 60km
Updated: 09/22/2019 4:53pm
Clear
Clear
 Wind from SSW
Wind: SSW 6 mph , 9 km/h
Temperature: 86°F , 30°C
Heat Index: 88°F , 31°C
Dew Point: 64°F , 18°C
Humidity: 49%
Barometer: 30.03 inHg , 1016.9 hPa
Clouds: Clear
Visibility: 10 miles , 16 km
2019/09/22 20:53 KFWN 222053Z AUTO 20005KT 10SM CLR 30/18 A3003 RMK AO2 SLP167 T03000183 56019
 
KSWF - Newburgh/Stewart, New York, USA
Distance from station: 0 45mi, 72km
Updated: 09/22/2019 4:45pm
Partly cloudy
Partly cloudy
 Wind from WSW
Wind: WSW 9 mph , 15 km/h, Gust: 18 mph , 30 km/h
Temperature: 86°F , 30°C
Heat Index: 88°F , 31°C
Dew Point: 64°F , 18°C
Humidity: 49%
Barometer: 30.03 inHg , 1016.9 hPa
Clouds: Partly cloudy
Visibility: 10 miles , 16 km
Cloud details: Partly cloudy 6000 ft
2019/09/22 20:45 KSWF 222045Z 24008G16KT 10SM SCT060 30/18 A3003
KMGJ - Montgomery, New York, USA
Distance from station: NNW 47mi, 75km
Updated: 09/22/2019 4:54pm
Clear
Clear
 Wind from SW
Wind: SW 10 mph , 17 km/h
Temperature: 84°F , 29°C
Heat Index: 85°F , 29°C
Dew Point: 64°F , 18°C
Humidity: 51%
Barometer: 30.01 inHg , 1016.3 hPa
Clouds: Clear
Visibility: 10 miles , 16 km
2019/09/22 20:54 KMGJ 222054Z AUTO 22009KT 10SM CLR 29/18 A3001 RMK AO2 SLP160 T02890178 56021
 
KBLM - Belmar/Farmdale, New Jersey, USA
Distance from station: S 47mi, 76km
Updated: 09/22/2019 4:56pm
Clear
Clear
 Wind from SSE
Wind: SSE 8 mph , 13 km/h
Temperature: 81°F , 27°C
Heat Index: 83°F , 28°C
Dew Point: 66°F , 19°C
Humidity: 62%
Barometer: 30.07 inHg , 1018.3 hPa
Clouds: Clear
Visibility: 10 miles , 16 km
2019/09/22 20:56 KBLM 222056Z AUTO 15007KT 10SM CLR 27/19 A3007 RMK AO2 SLP183 T02720194 56019
KDXR - Danbury, Connecticut, USA
Distance from station: NE 47mi, 76km
Updated: 09/22/2019 4:53pm
Clear
Clear
 Wind from S
Wind: S 12 mph , 19 km/h, Gust: 20 mph , 31 km/h
Temperature: 82°F , 28°C
Heat Index: 83°F , 28°C
Dew Point: 63°F , 17°C
Humidity: 51%
Barometer: 30.05 inHg , 1017.6 hPa
Clouds: Clear
Visibility: 10 miles , 16 km
2019/09/22 20:53 KDXR 222053Z 18010G17KT 10SM CLR 28/17 A3005 RMK AO2 SLP173 T02780167 56020
 
KISP - Islip, New York, USA
Distance from station: E 52mi, 83km
Updated: 09/22/2019 4:56pm
Mostly cloudy
Mostly cloudy
 Wind from SSW
Wind: SSW 14 mph , 22 km/h, Gust: 17 mph , 28 km/h
Temperature: 77°F , 25°C
Dew Point: 63°F , 17°C
Humidity: 61%
Barometer: 30.07 inHg , 1018.3 hPa
Clouds: Mostly cloudy
Visibility: 10 miles , 16 km
Cloud details: Mostly cloudy 25000 ft
2019/09/22 20:56 KISP 222056Z 20012G15KT 10SM BKN250 25/17 A3007 RMK AO2 SLP182 T02500172 56017 $
KBDR - Bridgeport, Connecticut, USA
Distance from station: ENE 54mi, 87km
Updated: 09/22/2019 4:52pm
Clear
Clear
 Wind from SSW
Wind: SSW 12 mph , 19 km/h
Temperature: 81°F , 27°C
Heat Index: 82°F , 28°C
Dew Point: 63°F , 17°C
Humidity: 54%
Barometer: 30.05 inHg , 1017.6 hPa
Clouds: Clear
Visibility: 10 miles , 16 km
2019/09/22 20:52 KBDR 222052Z 20010KT 10SM CLR 27/17 A3005 RMK AO2 SLP174 T02720172 56020
 
KTTN - Trenton, New Jersey, USA
Distance from station: SW 55mi, 88km
Updated: 09/22/2019 4:53pm
Clear
Clear
 Wind from S
Wind: S 9 mph , 15 km/h
Temperature: 86°F , 30°C
Heat Index: 88°F , 31°C
Dew Point: 64°F , 18°C
Humidity: 49%
Barometer: 30.04 inHg , 1017.3 hPa
Clouds: Clear
Visibility: 10 miles , 16 km
2019/09/22 20:53 KTTN 222053Z 19008KT 10SM CLR 30/18 A3004 RMK AO2 SLP164 T03000183 56022
KPOU - Poughkeepsie, New York, USA
Distance from station: N 55mi, 89km
Updated: 09/22/2019 4:53pm
Clear
Clear
 Wind from S
Wind: S 7 mph , 11 km/h
Temperature: 88°F , 31°C
Heat Index: 89°F , 32°C
Dew Point: 63°F , 17°C
Humidity: 43%
Barometer: 29.99 inHg , 1015.6 hPa
Clouds: Clear
Visibility: 10 miles , 16 km
2019/09/22 20:53 KPOU 222053Z 18006KT 10SM CLR 31/17 A2999 RMK AO2 SLP152 T03060172 56023
 
KNEL - Lakehurst Nas, New Jersey, USA
Distance from station: SSW 59mi, 95km
Updated: 09/22/2019 5:00pm
Few Clouds
Few Clouds
 Wind from S
Wind: S 15 mph , 24 km/h
Temperature: 84°F , 29°C
Heat Index: 86°F , 30°C
Dew Point: 66°F , 19°C
Humidity: 55%
Barometer: 30.05 inHg , 1017.6 hPa
Clouds: Few Clouds
Visibility: 10 miles , 16 km
Cloud details: Few Clouds 5000 ft
2019/09/22 21:00 KNEL 222100Z AUTO 18013KT 10SM FEW050 29/19 A3005 RMK AO2 SLP173 T02940194 56023 $
KWRI - Wrightst/Mcguire, New Jersey, USA
Distance from station: SSW 63mi, 102km
Updated: 09/22/2019 4:56pm
Few Clouds
Few Clouds
 Wind from SSW
Wind: SSW 8 mph , 13 km/h
Temperature: 86°F , 30°C
Heat Index: 88°F , 31°C
Dew Point: 66°F , 19°C
Humidity: 52%
Barometer: 30.05 inHg , 1017.6 hPa
Clouds: Few Clouds
Visibility: 10 miles , 16 km
Cloud details: Few Clouds 5000 ft
2019/09/22 20:56 KWRI 222056Z 21007KT 10SM FEW050 30/19 A3005 RMK AO2A WND DATA ESTMD $
 
KHWV - Shirley, New York, USA
Distance from station: E 64mi, 103km
Updated: 09/22/2019 4:56pm
Clear
Clear
 Wind from SSW
Wind: SSW 10 mph , 17 km/h
Temperature: 75°F , 24°C
Dew Point: 64°F , 18°C
Humidity: 69%
Barometer: 30.08 inHg , 1018.6 hPa
Clouds: Clear
Visibility: 10 miles , 16 km
2019/09/22 20:56 KHWV 222056Z AUTO 21009KT 10SM CLR 24/18 A3008 RMK AO2 SLP185 T02390178 56016
KMJX - Toms River, New Jersey, USA
Distance from station: S 64mi, 104km
Updated: 09/22/2019 4:56pm
Clear
Clear
 Wind from S
Wind: S 10 mph , 17 km/h
Temperature: 82°F , 28°C
Heat Index: 86°F , 30°C
Dew Point: 70°F , 21°C
Humidity: 66%
Barometer: 30.07 inHg , 1018.3 hPa
Clouds: Clear
Visibility: 10 miles , 16 km
2019/09/22 20:56 KMJX 222056Z AUTO 17009KT 10SM CLR 28/21 A3007 RMK AO2 SLPNO T02780206 56016
 
KDYL - Doylestown, Pennsylvania, USA
Distance from station: SW 65mi, 104km
Updated: 09/22/2019 4:54pm
Clear
Clear
 Wind from varies
Wind: varies 6 mph , 9 km/h
Temperature: 88°F , 31°C
Heat Index: 89°F , 32°C
Dew Point: 63°F , 17°C
Humidity: 43%
Barometer: 30.05 inHg , 1017.6 hPa
Clouds: Clear
Visibility: 10 miles , 16 km
2019/09/22 20:54 KDYL 222054Z AUTO VRB05KT 10SM CLR 31/17 A3005 RMK AO2 SLP169 T03060172 56019
KOXC - Oxford/Waterbury, Connecticut, USA
Distance from station: NE 65mi, 105km
Updated: 09/22/2019 4:51pm
Clear
Clear
 Wind from SSW
Wind: SSW 10 mph , 17 km/h
Temperature: 81°F , 27°C
Heat Index: 82°F , 28°C
Dew Point: 63°F , 17°C
Humidity: 54%
Barometer: 30.07 inHg , 1018.3 hPa
Clouds: Clear
Visibility: 10 miles , 16 km
2019/09/22 20:51 KOXC 222051Z 20009KT 10SM CLR 27/17 A3007 RMK AO2 SLP188 T02720172 56020
 
KMSV - Monticello, New York, USA
Distance from station: NNW 69mi, 111km
Updated: 09/22/2019 4:56pm
Few Clouds
Few Clouds
 Wind from W
Wind: W 7 mph , 11 km/h
Temperature: 82°F , 28°C
Heat Index: 84°F , 29°C
Dew Point: 64°F , 18°C
Humidity: 55%
Barometer: 30.08 inHg , 1018.6 hPa
Clouds: Few Clouds
Visibility: 10 miles , 16 km
Cloud details: Few Clouds 5000 ft
2019/09/22 20:56 KMSV 222056Z AUTO 27006KT 10SM FEW050 28/18 A3008 RMK AO2 SLP180 T02830178 56019
KHVN - New Haven/Tweed, Connecticut, USA
Distance from station: ENE 70mi, 112km
Updated: 09/22/2019 4:53pm
Partly cloudy
Partly cloudy
 Wind from SSE
Wind: SSE 8 mph , 13 km/h
Temperature: 81°F , 27°C
Heat Index: 84°F , 29°C
Dew Point: 68°F , 20°C
Humidity: 66%
Barometer: 30.05 inHg , 1017.6 hPa
Clouds: Partly cloudy
Visibility: 10 miles , 16 km
Cloud details: Partly cloudy 20000 ft
2019/09/22 20:53 KHVN 222053Z 16007KT 10SM SCT200 27/20 A3005 RMK AO2 SLP176 T02670200 56019
 
KMPO - Mt. Pocono, Pennsylvania, USA
Distance from station: WNW 70mi, 113km
Updated: 09/22/2019 4:53pm
Few Clouds
Few Clouds
 Wind from SSW
Wind: SSW 10 mph , 17 km/h
Temperature: 81°F , 27°C
Heat Index: 82°F , 28°C
Dew Point: 63°F , 17°C
Humidity: 54%
Barometer: 30.11 inHg , 1019.6 hPa
Clouds: Few Clouds
Visibility: 10 miles , 16 km
Cloud details: Few Clouds 4300 ft
2019/09/22 20:53 KMPO 222053Z AUTO 21009KT 180V240 10SM FEW043 27/17 A3011 RMK AO2 SLP189 T02670172 56016
KPNE - Philadelphia/Ne, Pennsylvania, USA
Distance from station: SW 72mi, 116km
Updated: 09/22/2019 4:54pm
Few Clouds
Few Clouds
 Wind from SSW
Wind: SSW 7 mph , 11 km/h
Temperature: 90°F , 32°C
Heat Index: 91°F , 33°C
Dew Point: 63°F , 17°C
Humidity: 41%
Barometer: 30.05 inHg , 1017.6 hPa
Clouds: Few Clouds
Visibility: 10 miles , 16 km
Cloud details: Few Clouds 5500 ft
2019/09/22 20:54 KPNE 222054Z 21006KT 10SM FEW055 32/17 A3005 RMK AO2 SLP175 T03170167 56021 $
 
KABE - Allentown, Pennsylvania, USA
Distance from station: W 73mi, 117km
Updated: 09/22/2019 4:51pm
Few Clouds
Few Clouds
 Wind from SW
Wind: SW 8 mph , 13 km/h
Temperature: 88°F , 31°C
Heat Index: 90°F , 32°C
Dew Point: 64°F , 18°C
Humidity: 46%
Barometer: 30.04 inHg , 1017.3 hPa
Clouds: Few Clouds
Visibility: 10 miles , 16 km
Cloud details: Few Clouds 6000 ft
2019/09/22 20:51 KABE 222051Z 22007KT 10SM FEW060 31/18 A3004 RMK AO2 SLP169 T03110183 56020
KUKT - Quakertown Arp, Pennsylvania, USA
Distance from station: WSW 74mi, 119km
Updated: 09/22/2019 5:15pm
Clear
Clear
 Wind from SW
Wind: SW 6 mph , 9 km/h
Temperature: 86°F , 30°C
Heat Index: 88°F , 31°C
Dew Point: 66°F , 19°C
Humidity: 52%
Barometer: 30.05 inHg , 1017.6 hPa
Clouds: Clear
Visibility: 10 miles , 16 km
2019/09/22 21:15 KUKT 222115Z AUTO 23005KT 10SM CLR 30/19 A3005 RMK A01
 
KVAY - Mount Holly, New Jersey, USA
Distance from station: SSW 75mi, 120km
Updated: 09/22/2019 4:54pm
Few Clouds
Few Clouds
 Wind from varies
Wind: varies 5 mph , 7 km/h
Temperature: 88°F , 31°C
Heat Index: 90°F , 32°C
Dew Point: 64°F , 18°C
Humidity: 46%
Barometer: 30.04 inHg , 1017.3 hPa
Clouds: Few Clouds
Visibility: 10 miles , 16 km
Cloud details: Few Clouds 5500 ft
2019/09/22 20:54 KVAY 222054Z AUTO VRB04KT 10SM FEW055 31/18 A3004 RMK AO2 SLP173 T03060178 56019 $
KXLL - Allentown Queen, Pennsylvania, USA
Distance from station: WSW 76mi, 122km
Updated: 09/22/2019 5:15pm
Partly cloudy
Partly cloudy
 Wind from SSW
Wind: SSW 9 mph , 15 km/h
Temperature: 86°F , 30°C
Heat Index: 88°F , 31°C
Dew Point: 66°F , 19°C
Humidity: 52%
Barometer: 30.05 inHg , 1017.6 hPa
Clouds: Partly cloudy
Visibility: 10 miles , 16 km
Cloud details: Partly cloudy 4900 ft
2019/09/22 21:15 KXLL 222115Z AUTO 20008KT 10SM SCT049 30/19 A3005 RMK AO2
 
KFOK - Westhampton Beac, New York, USA
Distance from station: E 77mi, 124km
Updated: 09/22/2019 4:53pm
Clear
Clear
 Wind from SSW
Wind: SSW 8 mph , 13 km/h
Temperature: 73°F , 23°C
Dew Point: 66°F , 19°C
Humidity: 78%
Barometer: 30.10 inHg , 1019.3 hPa
Clouds: Clear
Visibility: 10 miles , 16 km
2019/09/22 20:53 KFOK 222053Z 20007KT 10SM CLR 23/19 A3010 RMK AO2 SLP191 T02280189 56016
KLOM - Philly Wings F, Pennsylvania, USA
Distance from station: SW 79mi, 128km
Updated: 09/22/2019 5:15pm
Clear
Clear
 Wind from S
Wind: S 8 mph , 13 km/h
Temperature: 84°F , 29°C
Heat Index: 86°F , 30°C
Dew Point: 66°F , 19°C
Humidity: 55%
Barometer: 30.06 inHg , 1017.9 hPa
Clouds: Clear
Visibility: 10 miles , 16 km
2019/09/22 21:15 KLOM 222115Z AUTO 19007KT 10SM CLR 29/19 A3006 RMK AO2 T02950192
 
KMMK - Meriden, Connecticut, USA
Distance from station: NE 80mi, 128km
Updated: 09/22/2019 4:53pm
Clear
Clear
 Wind from S
Wind: S 13 mph , 20 km/h
Temperature: 81°F , 27°C
Heat Index: 82°F , 28°C
Dew Point: 61°F , 16°C
Humidity: 51%
Barometer: 30.03 inHg , 1016.9 hPa
Clouds: Clear
Visibility: 10 miles , 16 km
2019/09/22 20:53 KMMK 222053Z AUTO 18011KT 10SM CLR 27/16 A3003 RMK AO2 SLP168 T02720161 56021
KPTW - Pottstown, Pennsylvania, USA
Distance from station: WSW 88mi, 141km
Updated: 09/22/2019 4:54pm
Clear
Clear
 Wind from S
Wind: S 7 mph , 11 km/h
Temperature: 86°F , 30°C
Heat Index: 88°F , 31°C
Dew Point: 64°F , 18°C
Humidity: 49%
Barometer: 30.07 inHg , 1018.3 hPa
Clouds: Clear
Visibility: 9 miles , 14 km
2019/09/22 20:54 KPTW 222054Z AUTO 18006KT 9SM CLR 30/18 A3007 RMK AO2 SLP177 T03000178 56018
 
KSNC - Chester, Connecticut, USA
Distance from station: ENE 90mi, 146km
Updated: 09/22/2019 5:15pm
Clear
Clear
 Wind from S
Wind: S 8 mph , 13 km/h
Temperature: 81°F , 27°C
Heat Index: 82°F , 28°C
Dew Point: 63°F , 17°C
Humidity: 54%
Barometer: 30.06 inHg , 1017.9 hPa
Clouds: Clear
Visibility: 10 miles , 16 km
2019/09/22 21:15 KSNC 222115Z AUTO 18007KT 10SM CLR 27/17 A3006 RMK AO2
KPHL - Philadelphia, Pennsylvania, USA
Distance from station: SW 91mi, 146km
Updated: 09/22/2019 4:54pm
Partly cloudy
Partly cloudy
 Wind from SSW
Wind: SSW 9 mph , 15 km/h
Temperature: 90°F , 32°C
Heat Index: 91°F , 33°C
Dew Point: 63°F , 17°C
Humidity: 41%
Barometer: 30.05 inHg , 1017.6 hPa
Clouds: Partly cloudy
Visibility: 10 miles , 16 km
Cloud details: Few Clouds 5000 ft
Partly cloudy 25000 ft
2019/09/22 20:54 KPHL 222054Z 21008KT 10SM FEW050 SCT250 32/17 A3005 RMK SLP173 T03170172 56019
 
KAVP - Avoca/Wilkes B., Pennsylvania, USA
Distance from station: WNW 91mi, 147km
Updated: 09/22/2019 4:54pm
Clear
Clear
 Wind from WSW
Wind: WSW 8 mph , 13 km/h
Temperature: 86°F , 30°C
Heat Index: 88°F , 31°C
Dew Point: 64°F , 18°C
Humidity: 49%
Barometer: 30.04 inHg , 1017.3 hPa
Clouds: Clear
Visibility: 10 miles , 16 km
2019/09/22 20:54 KAVP 222054Z 24007KT 10SM CLR 30/18 A3004 RMK AO2 SLP166 T03000178 56018
KHFD - Hartford/Brainar, Connecticut, USA
Distance from station: NE 96mi, 155km
Updated: 09/22/2019 4:53pm
Clear
Clear
 Wind from SSE
Wind: SSE 8 mph , 13 km/h, Gust: 17 mph , 28 km/h
Temperature: 82°F , 28°C
Heat Index: 82°F , 28°C
Dew Point: 61°F , 16°C
Humidity: 48%
Barometer: 30.01 inHg , 1016.3 hPa
Clouds: Clear
Visibility: 10 miles , 16 km
2019/09/22 20:53 KHFD 222053Z 16007G15KT 10SM CLR 28/16 A3001 RMK AO2 SLP162 T02830161 56022
 
KHTO - East Hampton, New York, USA
Distance from station: E 96mi, 155km
Updated: 09/22/2019 5:15pm
Clear
Clear
 Wind from SW
Wind: SW 10 mph , 17 km/h
Temperature: 72°F , 22°C
Dew Point: 66°F , 19°C
Humidity: 83%
Barometer: 30.07 inHg , 1018.3 hPa
Clouds: Clear
Visibility: 10 miles , 16 km
2019/09/22 21:15 KHTO 222115Z AUTO 22009KT 10SM CLR 22/19 A3007 RMK AO2 T02150189
KACY - Atlantic City, New Jersey, USA
Distance from station: SSW 99mi, 160km
Updated: 09/22/2019 4:54pm
Clear
Clear
 Wind from S
Wind: S 9 mph , 15 km/h
Temperature: 81°F , 27°C
Heat Index: 83°F , 28°C
Dew Point: 66°F , 19°C
Humidity: 62%
Barometer: 30.08 inHg , 1018.6 hPa
Clouds: Clear
Visibility: 10 miles , 16 km
2019/09/22 20:54 KACY 222054Z 17008KT 10SM CLR 27/19 A3008 RMK AO2 SLP184 T02720194 56017